createdAt,value
2019-03-01T00:08:01.026Z,10.70
2019-03-01T00:18:46.313Z,10.70
2019-03-01T00:29:24.291Z,10.70
2019-03-01T00:40:11.316Z,10.70
2019-03-01T00:50:13.276Z,10.80
2019-03-01T01:00:21.708Z,10.80
2019-03-01T01:10:23.657Z,10.70
2019-03-01T01:20:26.039Z,10.70
2019-03-01T01:30:28.363Z,10.80
2019-03-01T01:40:30.652Z,10.80
2019-03-01T01:50:32.885Z,10.80
2019-03-01T02:00:35.258Z,10.80
2019-03-01T02:10:37.260Z,10.70
2019-03-01T02:20:39.311Z,10.80
2019-03-01T02:30:44.019Z,10.80
2019-03-01T02:40:46.019Z,10.70
2019-03-01T02:50:47.995Z,10.80
2019-03-01T03:00:50.637Z,10.70
2019-03-01T03:10:52.590Z,10.80
2019-03-01T03:20:55.203Z,10.70
2019-03-01T03:30:57.151Z,10.60
2019-03-01T03:40:59.109Z,10.60
2019-03-01T03:51:01.069Z,10.60
2019-03-01T04:01:04.377Z,10.60
2019-03-01T04:11:06.114Z,10.50
2019-03-01T04:21:08.115Z,10.60
2019-03-01T04:31:10.698Z,10.50
2019-03-01T04:41:12.772Z,10.60
2019-03-01T04:51:15.054Z,10.60
2019-03-01T05:01:17.130Z,10.60
2019-03-01T05:11:19.093Z,10.60
2019-03-01T05:21:21.111Z,10.60
2019-03-01T05:31:24.597Z,10.50
2019-03-01T05:41:26.628Z,10.50
2019-03-01T05:51:28.852Z,10.60
2019-03-01T06:02:10.845Z,10.60
2019-03-01T06:12:42.492Z,10.70
2019-03-01T06:23:10.726Z,10.60
2019-03-01T06:33:51.688Z,10.60
2019-03-01T06:44:22.528Z,10.60
2019-03-01T06:54:24.723Z,10.50
2019-03-01T07:04:26.930Z,10.50
2019-03-01T07:14:29.135Z,10.50
2019-03-01T07:24:31.251Z,10.50
2019-03-01T07:34:34.331Z,10.60
2019-03-01T07:44:36.487Z,10.50
2019-03-01T07:54:38.477Z,10.50
2019-03-01T08:04:40.426Z,10.50
2019-03-01T08:15:04.079Z,10.50
2019-03-01T08:25:07.307Z,10.50
2019-03-01T08:35:10.745Z,10.30
2019-03-01T08:45:14.470Z,10.20
2019-03-01T08:55:17.139Z,10.00
2019-03-01T09:05:19.092Z,9.80
2019-03-01T09:15:21.159Z,9.70
2019-03-01T09:25:24.130Z,9.60
2019-03-01T09:35:26.570Z,9.70
2019-03-01T09:45:35.803Z,9.70
2019-03-01T09:55:34.764Z,9.70
2019-03-01T10:05:37.501Z,9.60
2019-03-01T10:15:39.594Z,9.80
2019-03-01T10:25:42.859Z,9.90
2019-03-01T10:35:44.732Z,9.80
2019-03-01T10:45:46.751Z,9.70
2019-03-01T10:55:48.899Z,9.90
2019-03-01T11:05:53.011Z,9.90
2019-03-01T11:15:55.074Z,9.90
2019-03-01T11:25:57.453Z,9.90
2019-03-01T11:35:59.835Z,10.00
2019-03-01T11:46:01.786Z,10.20
2019-03-01T11:56:04.155Z,10.20
2019-03-01T12:06:06.107Z,10.00
2019-03-01T12:16:08.512Z,9.80
2019-03-01T12:26:10.667Z,9.80
2019-03-01T12:36:12.618Z,9.80
2019-03-01T12:46:14.546Z,9.80
2019-03-01T12:56:16.484Z,9.60
2019-03-01T13:06:18.730Z,8.90
2019-03-01T13:16:23.407Z,8.70
2019-03-01T13:26:24.710Z,8.70
2019-03-01T13:36:32.648Z,8.80
2019-03-01T13:46:54.073Z,9.00
2019-03-01T13:56:56.111Z,9.10
2019-03-01T14:06:58.440Z,8.90
2019-03-01T14:17:00.478Z,8.80
2019-03-01T14:27:02.687Z,8.80
2019-03-01T14:37:04.938Z,8.90
2019-03-01T14:47:06.898Z,8.90
2019-03-01T14:57:23.950Z,8.70
2019-03-01T15:07:27.905Z,8.50
2019-03-01T15:17:32.018Z,8.60
2019-03-01T15:27:39.688Z,8.70
2019-03-01T15:37:37.964Z,8.70
2019-03-01T15:47:39.922Z,8.80
2019-03-01T15:57:42.272Z,8.90
2019-03-01T16:07:44.800Z,8.90
2019-03-01T16:17:47.114Z,8.90
2019-03-01T16:27:50.804Z,8.90
2019-03-01T16:37:53.218Z,8.90
2019-03-01T16:47:55.144Z,8.70
2019-03-01T16:58:06.195Z,8.70
2019-03-01T17:08:05.575Z,8.60
2019-03-01T17:18:11.260Z,8.50
2019-03-01T17:28:10.618Z,8.40
2019-03-01T17:38:12.909Z,8.40
2019-03-01T17:48:18.438Z,8.40
2019-03-01T17:58:18.956Z,8.50
2019-03-01T18:08:20.904Z,8.40
2019-03-01T18:18:23.781Z,8.30
2019-03-01T18:28:28.360Z,8.30
2019-03-01T18:38:31.307Z,8.20
2019-03-01T18:48:33.944Z,8.30
2019-03-01T18:58:36.325Z,8.30
2019-03-01T19:08:39.605Z,8.40
2019-03-01T19:18:51.230Z,8.30
2019-03-01T19:28:54.166Z,8.40
2019-03-01T19:38:56.732Z,8.40
2019-03-01T19:49:00.387Z,8.30
2019-03-01T19:59:02.412Z,8.30
2019-03-01T20:09:05.329Z,8.40
2019-03-01T20:19:07.621Z,8.40
2019-03-01T20:29:10.110Z,8.30
2019-03-01T20:39:15.407Z,8.20
2019-03-01T20:49:15.766Z,8.30
2019-03-01T20:59:17.918Z,8.20
2019-03-01T21:09:19.855Z,8.20
2019-03-01T21:19:21.783Z,8.20
2019-03-01T21:29:24.592Z,8.30
2019-03-01T21:39:28.234Z,8.30
2019-03-01T21:49:30.274Z,8.30
2019-03-01T21:59:32.258Z,8.40
2019-03-01T22:09:34.619Z,8.40
2019-03-01T22:19:36.592Z,8.30
2019-03-01T22:29:38.594Z,8.20
2019-03-01T22:39:42.806Z,8.20
2019-03-01T22:49:44.772Z,8.30
2019-03-01T22:59:47.248Z,8.20
2019-03-01T23:09:50.603Z,8.20
2019-03-01T23:19:52.863Z,8.20
2019-03-01T23:29:55.047Z,8.20
2019-03-01T23:40:00.592Z,8.20
2019-03-01T23:50:00.906Z,8.20
